Wind From: 10-12-2017 19:04 Until: 11-12-2017 16:00 warning for: Wind Level: Orange info button

Power and phone distribution networks may be disrupted for relatively long periods., Roofs and chimneys can be damaged. , Tree branches may break. , Vehicles can be deported. , Traffic may be disrupted, particularly on secondary roads in forest areas. Limit your trips. , Limit your speed in highway driving, especially if you drive a vehicle or hitch sensitive to wind. , Do not go for walks in forests or along the coast., In town, be vigilant against possible falling objects., Do not work on roofs and do not touch any electrical line fallen on the ground., Store or secure sensitive objects to wind or likely to be damaged., Always install power generators outside buildings. 


Meteo18 Weather Cam more information Meteo18 Weather Cam


Thunder radar more information blitzortung!


Rain radar more information rain snow radar


Visit our other weather sites:

Template documentation
and downloads

And another site



Weather Underground History page Text

Daily Summary for July 15, 2017 Units:  Metric    English   Both
« Previous Day
Next Day »
Daily Weekly Monthly Yearly Custom
  High: Low: Average:
Temperature: 25.3 °C 12.2 °C 19.4 °C
Dew Point: 12.5 °C 9.8 °C 11.2 °C
Humidity: 85 % 42 % 61 %
Wind Speed: 17.7 km/h 0.0 km/h 4.3 km/h
Wind Gust: 22.5 km/h - -
Wind:- - SSW
Pressure: 1025.3 hPa 1023.2 hPa -
Precipitation: 0.0 mm    
Historical Graphs
 
 
Tabular Data for July 15, 2017
Time Temperature Dew Point Pressure Wind Wind Speed Wind Gust Humidity Rainfall Rate (Hourly)
00:02 17.3 °C 12.2 °C 1023.2 hPa WNW 1.6 km/h 6.4 km/h 72 % 0.0 mm
00:12 17.4 °C 12.3 °C 1023.2 hPa NW 4.8 km/h 14.5 km/h 72 % 0.0 mm
00:17 17.4 °C 12.3 °C 1023.2 hPa WNW 6.4 km/h 14.5 km/h 72 % 0.0 mm
00:22 17.4 °C 12.3 °C 1023.2 hPa NW 6.4 km/h 14.5 km/h 72 % 0.0 mm
00:27 17.4 °C 12.1 °C 1023.6 hPa NW 1.6 km/h 14.5 km/h 71 % 0.0 mm
00:37 17.4 °C 12.1 °C 1023.6 hPa NNW 9.7 km/h 12.9 km/h 71 % 0.0 mm
00:42 17.3 °C 12.2 °C 1023.6 hPa NNW 3.2 km/h 14.5 km/h 72 % 0.0 mm
00:47 17.2 °C 12.1 °C 1023.6 hPa North 4.8 km/h 14.5 km/h 72 % 0.0 mm
00:52 17.1 °C 12.0 °C 1023.6 hPa NNW 4.8 km/h 14.5 km/h 72 % 0.0 mm
00:57 16.9 °C 12.0 °C 1023.6 hPa North 11.3 km/h 12.9 km/h 73 % 0.0 mm
01:02 16.8 °C 11.9 °C 1023.6 hPa NNW 9.7 km/h 12.9 km/h 73 % 0.0 mm
01:12 16.5 °C 11.6 °C 1023.6 hPa NNW 6.4 km/h 11.3 km/h 73 % 0.0 mm
01:17 16.3 °C 11.5 °C 1023.6 hPa North 3.2 km/h 11.3 km/h 73 % 0.0 mm
01:22 16.2 °C 11.4 °C 1023.6 hPa NW 4.8 km/h 11.3 km/h 73 % 0.0 mm
01:27 16.1 °C 11.5 °C 1023.6 hPa NW 3.2 km/h 9.7 km/h 74 % 0.0 mm
01:32 16.0 °C 11.4 °C 1023.6 hPa NNW 1.6 km/h 9.7 km/h 74 % 0.0 mm
01:37 15.9 °C 11.3 °C 1023.6 hPa NNW 3.2 km/h 6.4 km/h 74 % 0.0 mm
01:42 15.9 °C 11.1 °C 1023.6 hPa North 4.8 km/h 8.0 km/h 73 % 0.0 mm
01:47 15.9 °C 11.1 °C 1023.6 hPa NNW 4.8 km/h 8.0 km/h 73 % 0.0 mm
01:52 15.8 °C 11.0 °C 1023.6 hPa North 6.4 km/h 9.7 km/h 73 % 0.0 mm
01:57 15.7 °C 10.9 °C 1023.6 hPa North 6.4 km/h 9.7 km/h 73 % 0.0 mm
02:02 15.8 °C 11.0 °C 1023.9 hPa NNW 6.4 km/h 11.3 km/h 73 % 0.0 mm
02:07 15.8 °C 10.8 °C 1023.9 hPa NNW 9.7 km/h 11.3 km/h 72 % 0.0 mm
02:12 15.7 °C 10.7 °C 1023.9 hPa NNW 3.2 km/h 11.3 km/h 72 % 0.0 mm
02:17 15.7 °C 10.7 °C 1023.9 hPa NW 3.2 km/h 14.5 km/h 72 % 0.0 mm
02:22 15.6 °C 10.6 °C 1023.9 hPa NW 3.2 km/h 14.5 km/h 72 % 0.0 mm
02:32 15.4 °C 10.6 °C 1023.9 hPa North 6.4 km/h 11.3 km/h 73 % 0.0 mm
02:42 15.3 °C 10.5 °C 1023.6 hPa NNE 4.8 km/h 9.7 km/h 73 % 0.0 mm
02:47 15.3 °C 10.5 °C 1023.9 hPa NW 3.2 km/h 9.7 km/h 73 % 0.0 mm
02:57 15.1 °C 10.5 °C 1023.9 hPa NW 4.8 km/h 9.7 km/h 74 % 0.0 mm
03:02 14.9 °C 10.3 °C 1023.9 hPa NNW 8.0 km/h 8.0 km/h 74 % 0.0 mm
03:07 14.9 °C 10.5 °C 1023.6 hPa NW 8.0 km/h 8.0 km/h 75 % 0.0 mm
03:12 14.8 °C 10.4 °C 1023.6 hPa North 1.6 km/h 9.7 km/h 75 % 0.0 mm
03:17 14.7 °C 10.3 °C 1023.9 hPa NNE 6.4 km/h 9.7 km/h 75 % 0.0 mm
03:22 14.6 °C 10.2 °C 1023.9 hPa NNW 3.2 km/h 9.7 km/h 75 % 0.0 mm
03:27 14.5 °C 10.3 °C 1023.9 hPa NNW 1.6 km/h 9.7 km/h 76 % 0.0 mm
03:32 14.4 °C 10.2 °C 1023.6 hPa NNW 1.6 km/h 8.0 km/h 76 % 0.0 mm
03:37 14.3 °C 10.1 °C 1023.9 hPa NW 3.2 km/h 8.0 km/h 76 % 0.0 mm
03:42 14.2 °C 10.2 °C 1023.9 hPa WNW 3.2 km/h 8.0 km/h 77 % 0.0 mm
03:47 14.1 °C 10.1 °C 1023.6 hPa North 1.6 km/h 8.0 km/h 77 % 0.0 mm
03:52 13.9 °C 10.1 °C 1023.6 hPa NNW 1.6 km/h 6.4 km/h 78 % 0.0 mm
03:57 13.8 °C 10.0 °C 1023.6 hPa NNW 3.2 km/h 6.4 km/h 78 % 0.0 mm
04:02 13.7 °C 10.1 °C 1023.6 hPa Calm   4.8 km/h 79 % 0.0 mm
04:07 13.6 °C 10.0 °C 1023.6 hPa Calm   4.8 km/h 79 % 0.0 mm
04:12 13.6 °C 10.2 °C 1023.6 hPa Calm   3.2 km/h 80 % 0.0 mm
04:17 13.4 °C 10.0 °C 1023.6 hPa NW 1.6 km/h 3.2 km/h 80 % 0.0 mm
04:22 13.3 °C 9.9 °C 1023.6 hPa NW 1.6 km/h 3.2 km/h 80 % 0.0 mm
04:27 13.2 °C 10.0 °C 1023.6 hPa Calm   3.2 km/h 81 % 0.0 mm
04:32 13.1 °C 9.9 °C 1023.6 hPa NNW 1.6 km/h 3.2 km/h 81 % 0.0 mm
04:42 12.9 °C 9.9 °C 1023.6 hPa Calm   3.2 km/h 82 % 0.0 mm
04:47 12.9 °C 9.9 °C 1023.6 hPa Calm   3.2 km/h 82 % 0.0 mm
04:52 12.9 °C 9.9 °C 1023.6 hPa Calm   3.2 km/h 82 % 0.0 mm
04:57 12.9 °C 9.9 °C 1023.6 hPa Calm   1.6 km/h 82 % 0.0 mm
05:02 12.8 °C 9.8 °C 1023.6 hPa Calm   1.6 km/h 82 % 0.0 mm
05:12 12.8 °C 9.8 °C 1023.6 hPa Calm   1.6 km/h 82 % 0.0 mm
05:17 12.8 °C 10.0 °C 1023.9 hPa Calm   1.6 km/h 83 % 0.0 mm
05:22 12.7 °C 9.9 °C 1023.6 hPa Calm   1.6 km/h 83 % 0.0 mm
05:27 12.8 °C 10.0 °C 1023.9 hPa Calm   1.6 km/h 83 % 0.0 mm
05:32 12.8 °C 9.8 °C 1023.9 hPa Calm   3.2 km/h 82 % 0.0 mm
05:42 12.7 °C 9.9 °C 1023.9 hPa Calm   3.2 km/h 83 % 0.0 mm
05:47 12.6 °C 9.8 °C 1024.3 hPa North 1.6 km/h 1.6 km/h 83 % 0.0 mm
05:52 12.6 °C 10.0 °C 1024.3 hPa North 3.2 km/h 3.2 km/h 84 % 0.0 mm
05:57 12.6 °C 10.0 °C 1024.3 hPa Calm   4.8 km/h 84 % 0.0 mm
06:02 12.6 °C 10.0 °C 1024.3 hPa Calm   4.8 km/h 84 % 0.0 mm
06:12 12.4 °C 9.8 °C 1024.3 hPa Calm   4.8 km/h 84 % 0.0 mm
06:17 12.3 °C 9.9 °C 1024.3 hPa Calm   3.2 km/h 85 % 0.0 mm
06:22 12.3 °C 9.9 °C 1024.3 hPa Calm   3.2 km/h 85 % 0.0 mm
06:27 12.3 °C 9.9 °C 1024.3 hPa Calm   1.6 km/h 85 % 0.0 mm
06:32 12.2 °C 9.8 °C 1024.3 hPa Calm   1.6 km/h 85 % 0.0 mm
06:42 12.6 °C 10.1 °C 1024.3 hPa NNE 3.2 km/h 3.2 km/h 85 % 0.0 mm
06:47 12.8 °C 10.2 °C 1024.3 hPa NNW 1.6 km/h 6.4 km/h 84 % 0.0 mm
06:52 13.0 °C 10.4 °C 1024.3 hPa Calm   6.4 km/h 84 % 0.0 mm
07:02 13.4 °C 10.4 °C 1024.3 hPa NNW 1.6 km/h 4.8 km/h 82 % 0.0 mm
07:12 13.8 °C 10.6 °C 1024.3 hPa NNE 1.6 km/h 6.4 km/h 81 % 0.0 mm
07:17 14.0 °C 10.8 °C 1024.3 hPa North 3.2 km/h 4.8 km/h 81 % 0.0 mm
07:22 14.2 °C 10.8 °C 1024.6 hPa North 4.8 km/h 6.4 km/h 80 % 0.0 mm
07:27 14.3 °C 10.9 °C 1024.3 hPa NNW 4.8 km/h 8.0 km/h 80 % 0.0 mm
07:32 14.6 °C 11.0 °C 1024.3 hPa NNW 3.2 km/h 8.0 km/h 79 % 0.0 mm
07:37 14.7 °C 10.9 °C 1024.6 hPa NE 4.8 km/h 8.0 km/h 78 % 0.0 mm
07:42 14.8 °C 11.0 °C 1024.6 hPa North 1.6 km/h 9.7 km/h 78 % 0.0 mm
07:47 14.9 °C 11.1 °C 1024.6 hPa NNW 6.4 km/h 12.9 km/h 78 % 0.0 mm
07:52 15.1 °C 11.3 °C 1024.6 hPa North 8.0 km/h 12.9 km/h 78 % 0.0 mm
08:02 15.4 °C 11.0 °C 1024.9 hPa NNW 8.0 km/h 14.5 km/h 75 % 0.0 mm
08:12 15.5 °C 11.1 °C 1024.9 hPa NE 6.4 km/h 19.3 km/h 75 % 0.0 mm
08:17 15.6 °C 11.2 °C 1025.3 hPa North 6.4 km/h 19.3 km/h 75 % 0.0 mm
08:22 15.7 °C 11.3 °C 1025.3 hPa NW 1.6 km/h 19.3 km/h 75 % 0.0 mm
08:27 15.9 °C 11.3 °C 1025.3 hPa NNE 4.8 km/h 19.3 km/h 74 % 0.0 mm
08:32 16.1 °C 11.5 °C 1025.3 hPa NE 9.7 km/h 14.5 km/h 74 % 0.0 mm
08:37 16.2 °C 11.4 °C 1025.3 hPa NNE 3.2 km/h 14.5 km/h 73 % 0.0 mm
08:42 16.3 °C 11.5 °C 1025.3 hPa NNW 9.7 km/h 19.3 km/h 73 % 0.0 mm
08:52 16.7 °C 11.6 °C 1025.3 hPa NNE 6.4 km/h 19.3 km/h 72 % 0.0 mm
08:57 16.8 °C 11.5 °C 1025.3 hPa North 12.9 km/h 14.5 km/h 71 % 0.0 mm
09:02 16.8 °C 11.7 °C 1025.3 hPa NNE 11.3 km/h 12.9 km/h 72 % 0.0 mm
09:12 17.2 °C 11.7 °C 1025.3 hPa NNW 4.8 km/h 14.5 km/h 70 % 0.0 mm
09:17 17.4 °C 11.9 °C 1025.3 hPa East 1.6 km/h 11.3 km/h 70 % 0.0 mm
09:22 17.5 °C 11.5 °C 1025.3 hPa East 3.2 km/h 11.3 km/h 68 % 0.0 mm
09:27 17.6 °C 11.6 °C 1025.3 hPa Calm   11.3 km/h 68 % 0.0 mm
09:32 17.8 °C 11.8 °C 1025.3 hPa Calm   9.7 km/h 68 % 0.0 mm
09:37 18.3 °C 11.8 °C 1025.3 hPa ENE 1.6 km/h 9.7 km/h 66 % 0.0 mm
09:42 18.3 °C 11.4 °C 1025.3 hPa ENE 6.4 km/h 8.0 km/h 64 % 0.0 mm
09:47 18.1 °C 11.2 °C 1025.3 hPa ENE 4.8 km/h 8.0 km/h 64 % 0.0 mm
09:52 18.3 °C 11.1 °C 1025.3 hPa ENE 1.6 km/h 8.0 km/h 63 % 0.0 mm
10:02 18.6 °C 11.2 °C 1025.3 hPa NE 8.0 km/h 12.9 km/h 62 % 0.0 mm
10:12 18.6 °C 11.4 °C 1025.3 hPa West 1.6 km/h 12.9 km/h 63 % 0.0 mm
10:17 18.8 °C 11.4 °C 1025.3 hPa North 8.0 km/h 16.1 km/h 62 % 0.0 mm
10:22 18.9 °C 11.5 °C 1025.3 hPa ENE 6.4 km/h 16.1 km/h 62 % 0.0 mm
10:32 19.3 °C 11.1 °C 1025.3 hPa NNE 4.8 km/h 14.5 km/h 59 % 0.0 mm
10:37 19.2 °C 11.5 °C 1025.3 hPa NNW 1.6 km/h 9.7 km/h 61 % 0.0 mm
10:42 19.3 °C 10.8 °C 1025.3 hPa SE 1.6 km/h 12.9 km/h 58 % 0.0 mm
10:47 19.7 °C 10.9 °C 1025.3 hPa NNW 3.2 km/h 12.9 km/h 57 % 0.0 mm
10:52 19.6 °C 11.1 °C 1025.3 hPa ENE 6.4 km/h 11.3 km/h 58 % 0.0 mm
10:57 19.4 °C 10.7 °C 1025.3 hPa North 6.4 km/h 9.7 km/h 57 % 0.0 mm
11:02 19.7 °C 10.9 °C 1025.3 hPa East 6.4 km/h 16.1 km/h 57 % 0.0 mm
11:07 19.6 °C 11.1 °C 1025.3 hPa NNW 6.4 km/h 16.1 km/h 58 % 0.0 mm
11:12 19.6 °C 11.1 °C 1025.3 hPa Calm   16.1 km/h 58 % 0.0 mm
11:17 19.9 °C 11.4 °C 1025.3 hPa North 1.6 km/h 12.9 km/h 58 % 0.0 mm
11:22 20.2 °C 11.4 °C 1025.3 hPa SE 4.8 km/h 16.1 km/h 57 % 0.0 mm
11:32 20.4 °C 11.3 °C 1025.3 hPa SW 1.6 km/h 16.1 km/h 56 % 0.0 mm
11:37 20.7 °C 11.1 °C 1025.3 hPa NW 6.4 km/h 9.7 km/h 54 % 0.0 mm
11:42 20.4 °C 10.8 °C 1025.3 hPa West 3.2 km/h 8.0 km/h 54 % 0.0 mm
11:47 20.4 °C 10.8 °C 1025.3 hPa North 6.4 km/h 14.5 km/h 54 % 0.0 mm
11:52 20.4 °C 10.8 °C 1025.3 hPa NE 1.6 km/h 16.1 km/h 54 % 0.0 mm
11:57 20.4 °C 10.5 °C 1025.3 hPa NNE 3.2 km/h 16.1 km/h 53 % 0.0 mm
12:02 20.4 °C 10.2 °C 1025.3 hPa NW 1.6 km/h 16.1 km/h 52 % 0.0 mm
12:12 20.6 °C 10.7 °C 1025.3 hPa North 11.3 km/h 14.5 km/h 53 % 0.0 mm
12:17 20.9 °C 10.7 °C 1024.9 hPa East 3.2 km/h 14.5 km/h 52 % 0.0 mm
12:22 21.1 °C 10.9 °C 1025.3 hPa NNE 11.3 km/h 14.5 km/h 52 % 0.0 mm
12:32 21.1 °C 10.9 °C 1024.9 hPa Calm   17.7 km/h 52 % 0.0 mm
12:42 21.2 °C 11.0 °C 1024.9 hPa SSE 3.2 km/h 17.7 km/h 52 % 0.0 mm
12:52 21.3 °C 10.5 °C 1024.9 hPa NE 1.6 km/h 12.9 km/h 50 % 0.0 mm
13:02 21.6 °C 10.1 °C 1025.3 hPa East 1.6 km/h 20.9 km/h 48 % 0.0 mm
13:12 21.9 °C 10.7 °C 1025.3 hPa ENE 11.3 km/h 16.1 km/h 49 % 0.0 mm
13:17 21.9 °C 10.7 °C 1025.3 hPa NNW 6.4 km/h 17.7 km/h 49 % 0.0 mm
13:22 22.1 °C 11.2 °C 1025.3 hPa NNE 8.0 km/h 17.7 km/h 50 % 0.0 mm
13:32 22.4 °C 11.2 °C 1024.9 hPa NE 8.0 km/h 16.1 km/h 49 % 0.0 mm
13:37 22.4 °C 10.2 °C 1024.9 hPa NE 8.0 km/h 19.3 km/h 46 % 0.0 mm
13:42 22.4 °C 10.5 °C 1024.9 hPa ENE 6.4 km/h 19.3 km/h 47 % 0.0 mm
13:47 22.4 °C 10.8 °C 1024.9 hPa North 4.8 km/h 19.3 km/h 48 % 0.0 mm
13:52 22.7 °C 10.8 °C 1024.9 hPa Calm   12.9 km/h 47 % 0.0 mm
13:57 22.9 °C 11.3 °C 1024.9 hPa North 3.2 km/h 12.9 km/h 48 % 0.0 mm
14:02 23.2 °C 10.9 °C 1024.9 hPa NNE 1.6 km/h 12.9 km/h 46 % 0.0 mm
14:07 23.2 °C 11.3 °C 1024.9 hPa NE 12.9 km/h 12.9 km/h 47 % 0.0 mm
14:12 23.2 °C 11.3 °C 1024.6 hPa NNE 3.2 km/h 20.9 km/h 47 % 0.0 mm
14:17 23.6 °C 11.3 °C 1024.6 hPa North 6.4 km/h 20.9 km/h 46 % 0.0 mm
14:22 23.7 °C 11.4 °C 1024.6 hPa NNE 4.8 km/h 20.9 km/h 46 % 0.0 mm
14:27 23.4 °C 10.5 °C 1024.6 hPa NNW 6.4 km/h 22.5 km/h 44 % 0.0 mm
14:32 23.3 °C 11.0 °C 1024.6 hPa Calm   22.5 km/h 46 % 0.0 mm
14:37 23.4 °C 10.8 °C 1024.6 hPa Calm   22.5 km/h 45 % 0.0 mm
14:42 23.5 °C 10.9 °C 1024.6 hPa NNE 1.6 km/h 17.7 km/h 45 % 0.0 mm
14:47 23.6 °C 11.0 °C 1024.6 hPa NE 11.3 km/h 22.5 km/h 45 % 0.0 mm
14:52 23.5 °C 10.9 °C 1024.6 hPa SSW 3.2 km/h 22.5 km/h 45 % 0.0 mm
15:02 23.6 °C 10.6 °C 1024.6 hPa ENE 4.8 km/h 14.5 km/h 44 % 0.0 mm
15:07 23.7 °C 10.7 °C 1024.6 hPa East 3.2 km/h 17.7 km/h 44 % 0.0 mm
15:12 23.2 °C 9.9 °C 1024.6 hPa NE 3.2 km/h 17.7 km/h 43 % 0.0 mm
15:17 23.6 °C 11.0 °C 1024.6 hPa SW 3.2 km/h 17.7 km/h 45 % 0.0 mm
15:22 24.1 °C 10.7 °C 1024.3 hPa ENE 8.0 km/h 17.7 km/h 43 % 0.0 mm
15:27 24.1 °C 11.1 °C 1024.6 hPa NNW 3.2 km/h 9.7 km/h 44 % 0.0 mm
15:32 24.1 °C 11.1 °C 1024.6 hPa NNW 1.6 km/h 16.1 km/h 44 % 0.0 mm
15:37 24.1 °C 11.1 °C 1024.3 hPa North 14.5 km/h 16.1 km/h 44 % 0.0 mm
15:42 24.2 °C 10.8 °C 1024.3 hPa Calm   20.9 km/h 43 % 0.0 mm
15:47 24.4 °C 10.7 °C 1024.3 hPa SW 4.8 km/h 20.9 km/h 42 % 0.0 mm
15:57 24.6 °C 11.2 °C 1024.3 hPa NW 6.4 km/h 8.0 km/h 43 % 0.0 mm
16:02 24.6 °C 10.8 °C 1024.3 hPa ENE 4.8 km/h 14.5 km/h 42 % 0.0 mm
16:07 24.4 °C 11.4 °C 1024.3 hPa North 3.2 km/h 14.5 km/h 44 % 0.0 mm
16:12 24.6 °C 11.5 °C 1024.3 hPa ENE 14.5 km/h 14.5 km/h 44 % 0.0 mm
16:17 24.3 °C 11.3 °C 1024.3 hPa East 11.3 km/h 16.1 km/h 44 % 0.0 mm
16:22 24.5 °C 11.4 °C 1024.3 hPa NE 11.3 km/h 17.7 km/h 44 % 0.0 mm
16:27 24.6 °C 11.2 °C 1024.3 hPa NNE 12.9 km/h 17.7 km/h 43 % 0.0 mm
16:32 24.4 °C 11.0 °C 1024.3 hPa NNW 8.0 km/h 22.5 km/h 43 % 0.0 mm
16:37 24.6 °C 11.2 °C 1024.3 hPa WNW 1.6 km/h 22.5 km/h 43 % 0.0 mm
16:42 24.9 °C 11.8 °C 1024.3 hPa ENE 4.8 km/h 22.5 km/h 44 % 0.0 mm
16:47 24.9 °C 11.8 °C 1024.3 hPa ENE 6.4 km/h 9.7 km/h 44 % 0.0 mm
16:52 24.9 °C 12.1 °C 1024.3 hPa NE 14.5 km/h 14.5 km/h 45 % 0.0 mm
16:57 24.8 °C 12.1 °C 1024.3 hPa ENE 12.9 km/h 14.5 km/h 45 % 0.0 mm
17:02 24.8 °C 11.7 °C 1024.3 hPa ESE 6.4 km/h 16.1 km/h 44 % 0.0 mm
17:07 25.0 °C 11.9 °C 1024.3 hPa NNE 9.7 km/h 19.3 km/h 44 % 0.0 mm
17:12 24.9 °C 11.8 °C 1024.3 hPa NE 14.5 km/h 19.3 km/h 44 % 0.0 mm
17:17 24.6 °C 11.5 °C 1024.3 hPa ENE 9.7 km/h 19.3 km/h 44 % 0.0 mm
17:22 24.6 °C 11.2 °C 1024.3 hPa ESE 3.2 km/h 19.3 km/h 43 % 0.0 mm
17:27 24.4 °C 11.7 °C 1023.9 hPa ENE 4.8 km/h 16.1 km/h 45 % 0.0 mm
17:32 24.8 °C 11.4 °C 1023.9 hPa NNE 9.7 km/h 14.5 km/h 43 % 0.0 mm
17:37 24.9 °C 11.8 °C 1023.9 hPa East 6.4 km/h 14.5 km/h 44 % 0.0 mm
17:42 25.2 °C 12.4 °C 1023.9 hPa NNW 6.4 km/h 14.5 km/h 45 % 0.0 mm
17:47 25.2 °C 11.7 °C 1023.9 hPa Calm   16.1 km/h 43 % 0.0 mm
17:52 25.3 °C 11.8 °C 1023.9 hPa NE 8.0 km/h 16.1 km/h 43 % 0.0 mm
17:57 25.0 °C 12.2 °C 1023.9 hPa NNE 17.7 km/h 19.3 km/h 45 % 0.0 mm
18:02 25.1 °C 11.6 °C 1023.9 hPa ENE 8.0 km/h 20.9 km/h 43 % 0.0 mm
18:07 25.2 °C 12.1 °C 1023.9 hPa NE 4.8 km/h 20.9 km/h 44 % 0.0 mm
18:12 25.2 °C 11.7 °C 1023.9 hPa NNE 12.9 km/h 20.9 km/h 43 % 0.0 mm
18:17 25.2 °C 12.1 °C 1023.9 hPa NNW 4.8 km/h 20.9 km/h 44 % 0.0 mm
18:22 25.3 °C 11.5 °C 1023.9 hPa ENE 8.0 km/h 16.1 km/h 42 % 0.0 mm
18:27 25.3 °C 11.8 °C 1023.9 hPa NNW 9.7 km/h 16.1 km/h 43 % 0.0 mm
18:32 25.1 °C 11.6 °C 1023.9 hPa NNE 1.6 km/h 16.1 km/h 43 % 0.0 mm
18:42 24.9 °C 11.8 °C 1023.9 hPa NNW 3.2 km/h 16.1 km/h 44 % 0.0 mm
18:52 24.8 °C 11.7 °C 1023.9 hPa NW 8.0 km/h 17.7 km/h 44 % 0.0 mm
18:57 24.7 °C 11.6 °C 1023.9 hPa North 8.0 km/h 17.7 km/h 44 % 0.0 mm
19:02 24.6 °C 11.9 °C 1023.9 hPa NNW 6.4 km/h 17.7 km/h 45 % 0.0 mm
19:07 24.8 °C 11.7 °C 1023.9 hPa ENE 4.8 km/h 17.7 km/h 44 % 0.0 mm
19:12 24.8 °C 12.1 °C 1023.9 hPa NE 6.4 km/h 17.7 km/h 45 % 0.0 mm
19:17 24.8 °C 12.1 °C 1023.9 hPa NNW 6.4 km/h 12.9 km/h 45 % 0.0 mm
19:22 24.9 °C 12.1 °C 1023.9 hPa NNE 12.9 km/h 14.5 km/h 45 % 0.0 mm
19:27 24.7 °C 11.6 °C 1024.3 hPa NNW 4.8 km/h 19.3 km/h 44 % 0.0 mm
19:32 24.7 °C 12.0 °C 1023.9 hPa NW 1.6 km/h 19.3 km/h 45 % 0.0 mm
19:42 24.6 °C 11.9 °C 1024.3 hPa NW 3.2 km/h 14.5 km/h 45 % 0.0 mm
19:47 24.6 °C 11.9 °C 1023.9 hPa NNW 12.9 km/h 14.5 km/h 45 % 0.0 mm
19:52 24.4 °C 11.7 °C 1023.9 hPa NE 8.0 km/h 14.5 km/h 45 % 0.0 mm
20:02 24.2 °C 11.8 °C 1024.3 hPa NNE 4.8 km/h 12.9 km/h 46 % 0.0 mm
20:07 24.3 °C 11.9 °C 1024.3 hPa NNW 4.8 km/h 14.5 km/h 46 % 0.0 mm
20:12 24.3 °C 11.9 °C 1024.3 hPa NNW 4.8 km/h 16.1 km/h 46 % 0.0 mm
20:17 24.3 °C 11.9 °C 1024.3 hPa NNE 4.8 km/h 16.1 km/h 46 % 0.0 mm
20:22 24.3 °C 12.3 °C 1023.9 hPa NNE 3.2 km/h 16.1 km/h 47 % 0.0 mm
20:27 24.1 °C 12.1 °C 1024.3 hPa NNE 3.2 km/h 14.5 km/h 47 % 0.0 mm
20:32 23.9 °C 11.9 °C 1024.3 hPa WNW 3.2 km/h 14.5 km/h 47 % 0.0 mm
20:37 23.9 °C 12.2 °C 1024.3 hPa ENE 4.8 km/h 14.5 km/h 48 % 0.0 mm
20:42 23.8 °C 12.1 °C 1024.3 hPa NNE 8.0 km/h 11.3 km/h 48 % 0.0 mm
20:47 23.8 °C 12.4 °C 1024.3 hPa North 8.0 km/h 12.9 km/h 49 % 0.0 mm
20:52 23.7 °C 12.4 °C 1024.3 hPa NNW 3.2 km/h 12.9 km/h 49 % 0.0 mm
20:57 23.4 °C 12.1 °C 1024.3 hPa NW 3.2 km/h 12.9 km/h 49 % 0.0 mm
21:02 23.2 °C 12.2 °C 1024.3 hPa North 4.8 km/h 11.3 km/h 50 % 0.0 mm
21:07 22.9 °C 11.9 °C 1024.3 hPa NNE 6.4 km/h 11.3 km/h 50 % 0.0 mm
21:12 22.7 °C 12.0 °C 1024.3 hPa NE 3.2 km/h 8.0 km/h 51 % 0.0 mm
21:17 22.5 °C 12.2 °C 1024.3 hPa NNE 3.2 km/h 8.0 km/h 52 % 0.0 mm
21:22 22.3 °C 12.0 °C 1024.3 hPa North 4.8 km/h 8.0 km/h 52 % 0.0 mm
21:27 22.2 °C 12.2 °C 1024.3 hPa NNW 3.2 km/h 8.0 km/h 53 % 0.0 mm
21:32 21.9 °C 11.9 °C 1024.3 hPa NNW 3.2 km/h 4.8 km/h 53 % 0.0 mm
21:37 21.8 °C 12.1 °C 1024.3 hPa WNW 1.6 km/h 6.4 km/h 54 % 0.0 mm
21:42 21.6 °C 11.9 °C 1024.6 hPa Calm   6.4 km/h 54 % 0.0 mm
21:47 21.4 °C 12.0 °C 1024.6 hPa NNW 1.6 km/h 6.4 km/h 55 % 0.0 mm
21:57 21.1 °C 11.7 °C 1024.6 hPa NNW 1.6 km/h 4.8 km/h 55 % 0.0 mm
22:02 20.9 °C 11.8 °C 1024.6 hPa Calm   3.2 km/h 56 % 0.0 mm
22:07 20.7 °C 11.9 °C 1024.6 hPa Calm   3.2 km/h 57 % 0.0 mm
22:12 20.6 °C 11.8 °C 1024.6 hPa Calm   3.2 km/h 57 % 0.0 mm
22:17 20.3 °C 11.8 °C 1024.6 hPa North 1.6 km/h 3.2 km/h 58 % 0.0 mm
22:22 19.9 °C 11.6 °C 1024.9 hPa North 1.6 km/h 3.2 km/h 59 % 0.0 mm
22:27 19.9 °C 11.9 °C 1024.9 hPa NNW 1.6 km/h 3.2 km/h 60 % 0.0 mm
22:32 19.9 °C 11.9 °C 1024.9 hPa NNW 1.6 km/h 3.2 km/h 60 % 0.0 mm
22:37 19.8 °C 12.1 °C 1024.9 hPa Calm   3.2 km/h 61 % 0.0 mm
22:42 19.6 °C 12.1 °C 1024.9 hPa WNW 1.6 km/h 1.6 km/h 62 % 0.0 mm
22:47 19.2 °C 12.0 °C 1024.9 hPa West 1.6 km/h 3.2 km/h 63 % 0.0 mm
22:52 19.1 °C 11.9 °C 1024.9 hPa Calm   3.2 km/h 63 % 0.0 mm
22:57 18.9 °C 11.9 °C 1024.9 hPa Calm   3.2 km/h 64 % 0.0 mm
23:02 18.9 °C 11.9 °C 1024.9 hPa Calm   1.6 km/h 64 % 0.0 mm
23:07 18.8 °C 12.1 °C 1024.9 hPa Calm   1.6 km/h 65 % 0.0 mm
23:17 18.3 °C 12.1 °C 1024.9 hPa Calm   1.6 km/h 67 % 0.0 mm
23:22 18.4 °C 11.9 °C 1024.9 hPa Calm   1.6 km/h 66 % 0.0 mm
23:27 18.4 °C 11.9 °C 1024.9 hPa West 1.6 km/h 1.6 km/h 66 % 0.0 mm
23:32 18.4 °C 11.9 °C 1024.9 hPa Calm   1.6 km/h 66 % 0.0 mm
23:37 18.4 °C 12.2 °C 1024.9 hPa Calm   1.6 km/h 67 % 0.0 mm
23:42 18.1 °C 12.1 °C 1024.9 hPa Calm   1.6 km/h 68 % 0.0 mm
23:47 17.8 °C 12.0 °C 1025.3 hPa Calm   1.6 km/h 69 % 0.0 mm
23:52 17.6 °C 12.5 °C 1025.3 hPa Calm   1.6 km/h 72 % 0.0 mm
23:57 17.5 °C 12.2 °C 1025.3 hPa Calm   1.6 km/h 71 % 0.0 mm
Meteo18
Compliments of Weather Underground - 4 mb

Script developed by  Jim McMurry - jmcmurry@mwt.net Adapted for the template by  Wim van der Kuil - Leuven-Template.eu

You find our weather info also at:

European Weather Network

Weather Underground

Equipment we use:

Weather-station
Davis Vue

Weather-program
Meteohub

Weather-server
Raspberry PI 2 B+

Provider
1 and 1

Davis Vue

Meteohub

Raspberry PI 2 B+

1 and 1